Arley, AL

10:46 AM CST on December 19, 2014 (GMT -0600)
Upshaw Community | Change Station
CLOSE
Current Station
Personal Weather Station
Location: Addison, AL
Elevation: 869 ft
Nearby Weather Stations

Elev 869 ft 34.26 °N, 87.16 °W | Updated 6 minutes ago

Overcast
Overcast
41.2 °F
Feels Like 38 °F
N
5.3
Wind Variable Wind from NE

Today
High -- | Low -- °F
--% Chance of Precip.
Yesterday
High -- | Low -- °F
Precip. -- in
6:50 AM 4:42 PM
Waning Crescent, 7% visible
Pressure 30.30 in
Visibility 10.0 miles
Clouds Overcast 3500 ft
Windchill 38 °F
Dew Point 36 °F
Humidity 83%
Rainfall 0.00 in
Snow Depth Not available.
UV 1 out of 12
Pollen .10 out of 12
Air Quality Not available.
Flu Activity Not available.
METAR K1M4 191556Z AUTO 00000KT 10SM OVC035 04/00 A3027 RMK AO2 T00380000 SLP259 $

More Conditions Fewer Conditions

Pressure 30.30 in
Visibility 10.0 miles
Clouds Overcast 3500 ft
Windchill 38 °F
Dew Point 36 °F
Humidity 83%
Rainfall 0.00 in
Snow Depth Not available.
UV 1 out of 12
Pollen .10 out of 12
Air Quality Not available.
Flu Activity Not available.
METAR K1M4 191556Z AUTO 00000KT 10SM OVC035 04/00 A3027 RMK AO2 T00380000 SLP259 $

More Conditions Fewer Conditions

10-Day Weather Forecast

Almanac

Astronomy

Dec. 19, 2014 Rise Set
Actual Time
Civil Twilight
Nautical Twilight
Astronomical Twilight
Moon
Length of Visible Light
Length of Day
Tomorrow will be .
, % of the Moon is Illuminated

Today's Extremes

State Highs State Lows

Community

WunderPhotos

Upload Photos

1,779,005 photos uploaded!

WunderBlogs® & News

Nearby

Air Quality

  Air Quality AQ Index Pollutant
Not available.

Snow Depth

Station Depth Elevation

Earthquake Activity

City Distance Mag. Time & Date
Minimum magnitude displayed is 2.5.

Coastal Water Temperatures

Place Temperature

Nearby Weather Stations